sensor_id;sensor_type;location;lat;lon;timestamp;pressure;altitude;pressure_sealevel;temperature;humidity
82245;BME280;71849;50.096;14.458;2024-03-02T00:02:01;98581.69;;;13.00;68.47
82245;BME280;71849;50.096;14.458;2024-03-02T00:04:30;98588.06;;;13.16;68.16
82245;BME280;71849;50.096;14.458;2024-03-02T00:07:00;98582.50;;;13.00;68.43
82245;BME280;71849;50.096;14.458;2024-03-02T00:09:29;98582.22;;;12.97;68.71
82245;BME280;71849;50.096;14.458;2024-03-02T00:11:58;98579.81;;;13.10;68.08
82245;BME280;71849;50.096;14.458;2024-03-02T00:14:30;98583.88;;;13.03;68.35
82245;BME280;71849;50.096;14.458;2024-03-02T00:16:59;98578.59;;;12.81;69.10
82245;BME280;71849;50.096;14.458;2024-03-02T00:19:28;98586.94;;;13.11;68.44
82245;BME280;71849;50.096;14.458;2024-03-02T00:22:00;98577.72;;;13.33;67.29
82245;BME280;71849;50.096;14.458;2024-03-02T00:24:31;98565.66;;;13.29;67.41
82245;BME280;71849;50.096;14.458;2024-03-02T00:27:01;98562.94;;;13.29;67.20
82245;BME280;71849;50.096;14.458;2024-03-02T00:29:37;98562.34;;;13.11;67.80
82245;BME280;71849;50.096;14.458;2024-03-02T00:32:12;98576.47;;;12.98;67.89
82245;BME280;71849;50.096;14.458;2024-03-02T00:34:41;98571.78;;;12.84;68.20
82245;BME280;71849;50.096;14.458;2024-03-02T00:37:10;98568.84;;;13.00;67.68
82245;BME280;71849;50.096;14.458;2024-03-02T00:39:39;98570.31;;;13.23;66.91
82245;BME280;71849;50.096;14.458;2024-03-02T00:42:11;98577.59;;;13.02;67.57
82245;BME280;71849;50.096;14.458;2024-03-02T00:44:42;98570.75;;;13.05;67.58
82245;BME280;71849;50.096;14.458;2024-03-02T00:47:12;98578.91;;;12.90;68.07
82245;BME280;71849;50.096;14.458;2024-03-02T00:49:41;98582.16;;;12.87;68.11
82245;BME280;71849;50.096;14.458;2024-03-02T00:52:10;98577.53;;;12.87;68.34
82245;BME280;71849;50.096;14.458;2024-03-02T00:54:38;98577.81;;;12.91;68.23
82245;BME280;71849;50.096;14.458;2024-03-02T00:57:10;98581.63;;;12.85;68.56
82245;BME280;71849;50.096;14.458;2024-03-02T00:59:42;98587.38;;;12.88;68.30
82245;BME280;71849;50.096;14.458;2024-03-02T01:02:11;98582.47;;;12.90;68.08
82245;BME280;71849;50.096;14.458;2024-03-02T01:04:41;98588.81;;;13.06;67.79
82245;BME280;71849;50.096;14.458;2024-03-02T01:07:09;98589.38;;;13.08;67.52
82245;BME280;71849;50.096;14.458;2024-03-02T01:09:38;98595.34;;;12.95;67.96
82245;BME280;71849;50.096;14.458;2024-03-02T01:12:07;98591.91;;;13.25;67.00
82245;BME280;71849;50.096;14.458;2024-03-02T01:14:35;98594.53;;;13.04;67.66
82245;BME280;71849;50.096;14.458;2024-03-02T01:17:06;98589.34;;;12.98;68.10
82245;BME280;71849;50.096;14.458;2024-03-02T01:19:35;98586.69;;;13.13;67.27
82245;BME280;71849;50.096;14.458;2024-03-02T01:22:05;98583.66;;;13.09;67.39
82245;BME280;71849;50.096;14.458;2024-03-02T01:24:33;98582.50;;;13.00;67.71
82245;BME280;71849;50.096;14.458;2024-03-02T01:27:02;98578.13;;;13.04;67.50
82245;BME280;71849;50.096;14.458;2024-03-02T01:29:30;98576.34;;;13.30;66.34
82245;BME280;71849;50.096;14.458;2024-03-02T01:31:59;98586.44;;;13.25;66.12
82245;BME280;71849;50.096;14.458;2024-03-02T01:34:30;98576.75;;;13.02;67.10
82245;BME280;71849;50.096;14.458;2024-03-02T01:36:58;98589.44;;;13.23;66.26
82245;BME280;71849;50.096;14.458;2024-03-02T01:39:27;98583.13;;;13.18;66.57
82245;BME280;71849;50.096;14.458;2024-03-02T01:41:55;98586.94;;;13.17;66.28
82245;BME280;71849;50.096;14.458;2024-03-02T01:44:24;98579.91;;;13.36;65.73
82245;BME280;71849;50.096;14.458;2024-03-02T01:46:52;98582.38;;;13.37;65.34
82245;BME280;71849;50.096;14.458;2024-03-02T01:49:21;98585.34;;;13.26;66.13
82245;BME280;71849;50.096;14.458;2024-03-02T01:51:52;98579.25;;;13.03;66.79
82245;BME280;71849;50.096;14.458;2024-03-02T01:54:20;98581.81;;;13.25;66.28
82245;BME280;71849;50.096;14.458;2024-03-02T01:56:49;98571.19;;;13.54;65.48
82245;BME280;71849;50.096;14.458;2024-03-02T01:59:18;98571.44;;;13.47;65.45
82245;BME280;71849;50.096;14.458;2024-03-02T02:01:46;98570.38;;;13.43;65.63
82245;BME280;71849;50.096;14.458;2024-03-02T02:04:15;98570.88;;;13.35;66.09
82245;BME280;71849;50.096;14.458;2024-03-02T02:06:44;98569.50;;;13.28;66.26
82245;BME280;71849;50.096;14.458;2024-03-02T02:09:15;98571.69;;;13.36;66.17
82245;BME280;71849;50.096;14.458;2024-03-02T02:11:43;98573.56;;;13.20;66.54
82245;BME280;71849;50.096;14.458;2024-03-02T02:14:12;98568.41;;;13.29;66.33
82245;BME280;71849;50.096;14.458;2024-03-02T02:16:41;98560.19;;;13.29;66.08
82245;BME280;71849;50.096;14.458;2024-03-02T02:19:09;98568.41;;;13.24;66.24
82245;BME280;71849;50.096;14.458;2024-03-02T02:21:42;98568.09;;;13.20;66.59
82245;BME280;71849;50.096;14.458;2024-03-02T02:24:10;98564.28;;;13.26;66.44
82245;BME280;71849;50.096;14.458;2024-03-02T02:26:39;98562.91;;;13.13;67.01
82245;BME280;71849;50.096;14.458;2024-03-02T02:29:07;98562.09;;;13.23;66.85
82245;BME280;71849;50.096;14.458;2024-03-02T02:31:39;98555.31;;;13.41;66.46
82245;BME280;71849;50.096;14.458;2024-03-02T02:34:08;98548.50;;;13.43;65.66
82245;BME280;71849;50.096;14.458;2024-03-02T02:36:41;98558.88;;;13.51;65.27
82245;BME280;71849;50.096;14.458;2024-03-02T02:39:13;98551.47;;;13.22;66.24
82245;BME280;71849;50.096;14.458;2024-03-02T02:41:43;98551.19;;;13.23;66.08
82245;BME280;71849;50.096;14.458;2024-03-02T02:44:11;98550.38;;;13.28;66.19
82245;BME280;71849;50.096;14.458;2024-03-02T02:46:40;98564.53;;;13.09;66.50
82245;BME280;71849;50.096;14.458;2024-03-02T02:49:08;98553.88;;;13.08;66.38
82245;BME280;71849;50.096;14.458;2024-03-02T02:51:37;98564.75;;;12.98;67.06
82245;BME280;71849;50.096;14.458;2024-03-02T02:54:08;98567.44;;;12.88;67.27
82245;BME280;71849;50.096;14.458;2024-03-02T02:56:36;98565.31;;;13.05;66.77
82245;BME280;71849;50.096;14.458;2024-03-02T02:59:05;98563.41;;;13.05;67.00
82245;BME280;71849;50.096;14.458;2024-03-02T03:01:33;98563.19;;;13.12;66.80
82245;BME280;71849;50.096;14.458;2024-03-02T03:04:02;98568.41;;;13.24;66.47
82245;BME280;71849;50.096;14.458;2024-03-02T03:06:31;98572.00;;;13.34;65.93
82245;BME280;71849;50.096;14.458;2024-03-02T03:08:59;98568.94;;;13.16;66.12
82245;BME280;71849;50.096;14.458;2024-03-02T03:11:30;98566.19;;;13.16;66.31
82245;BME280;71849;50.096;14.458;2024-03-02T03:13:59;98560.47;;;13.27;66.03
82245;BME280;71849;50.096;14.458;2024-03-02T03:16:27;98566.78;;;13.38;65.68
82245;BME280;71849;50.096;14.458;2024-03-02T03:18:56;98566.41;;;13.04;66.57
82245;BME280;71849;50.096;14.458;2024-03-02T03:21:24;98574.78;;;12.82;66.58
82245;BME280;71849;50.096;14.458;2024-03-02T03:23:53;98566.25;;;12.74;65.97
82245;BME280;71849;50.096;14.458;2024-03-02T03:26:21;98574.84;;;13.02;65.03
82245;BME280;71849;50.096;14.458;2024-03-02T03:28:52;98571.91;;;13.14;64.39
82245;BME280;71849;50.096;14.458;2024-03-02T03:31:21;98572.13;;;13.02;63.97
82245;BME280;71849;50.096;14.458;2024-03-02T03:33:49;98581.38;;;12.91;64.39
82245;BME280;71849;50.096;14.458;2024-03-02T03:36:18;98581.88;;;12.83;64.36
82245;BME280;71849;50.096;14.458;2024-03-02T03:38:46;98580.13;;;12.62;64.43
82245;BME280;71849;50.096;14.458;2024-03-02T03:41:15;98582.53;;;12.48;63.86
82245;BME280;71849;50.096;14.458;2024-03-02T03:43:43;98585.25;;;12.48;64.12
82245;BME280;71849;50.096;14.458;2024-03-02T03:46:14;98584.06;;;12.81;63.33
82245;BME280;71849;50.096;14.458;2024-03-02T03:48:43;98579.28;;;12.56;63.55
82245;BME280;71849;50.096;14.458;2024-03-02T03:51:11;98569.38;;;12.40;63.32
82245;BME280;71849;50.096;14.458;2024-03-02T03:53:39;98575.78;;;12.61;62.49
82245;BME280;71849;50.096;14.458;2024-03-02T03:56:08;98575.81;;;12.66;62.36
82245;BME280;71849;50.096;14.458;2024-03-02T03:58:36;98577.06;;;12.48;62.58
82245;BME280;71849;50.096;14.458;2024-03-02T04:01:05;98586.41;;;12.57;62.64
82245;BME280;71849;50.096;14.458;2024-03-02T04:03:36;98575.44;;;12.47;62.15
82245;BME280;71849;50.096;14.458;2024-03-02T04:06:05;98590.25;;;12.20;63.29
82245;BME280;71849;50.096;14.458;2024-03-02T04:08:33;98584.44;;;12.48;62.36
82245;BME280;71849;50.096;14.458;2024-03-02T04:11:02;98591.94;;;12.73;61.54
82245;BME280;71849;50.096;14.458;2024-03-02T04:13:33;98587.75;;;12.55;61.55
82245;BME280;71849;50.096;14.458;2024-03-02T04:16:01;98597.63;;;12.61;61.75
82245;BME280;71849;50.096;14.458;2024-03-02T04:18:30;98601.56;;;12.85;60.49
82245;BME280;71849;50.096;14.458;2024-03-02T04:21:01;98607.81;;;12.81;60.88
82245;BME280;71849;50.096;14.458;2024-03-02T04:23:30;98603.56;;;12.53;61.93
82245;BME280;71849;50.096;14.458;2024-03-02T04:25:58;98599.59;;;12.76;61.37
82245;BME280;71849;50.096;14.458;2024-03-02T04:28:27;98610.03;;;12.89;60.76
82245;BME280;71849;50.096;14.458;2024-03-02T04:30:55;98610.97;;;12.57;61.44
82245;BME280;71849;50.096;14.458;2024-03-02T04:33:24;98605.75;;;12.51;61.81
82245;BME280;71849;50.096;14.458;2024-03-02T04:35:52;98612.56;;;12.48;61.46
82245;BME280;71849;50.096;14.458;2024-03-02T04:38:23;98615.00;;;12.50;61.07
82245;BME280;71849;50.096;14.458;2024-03-02T04:40:52;98615.59;;;12.15;62.19
82245;BME280;71849;50.096;14.458;2024-03-02T04:43:20;98614.34;;;12.28;61.70
82245;BME280;71849;50.096;14.458;2024-03-02T04:45:49;98623.19;;;12.08;62.07
82245;BME280;71849;50.096;14.458;2024-03-02T04:48:17;98619.06;;;12.05;62.09
82245;BME280;71849;50.096;14.458;2024-03-02T04:50:47;98629.22;;;12.52;60.88
82245;BME280;71849;50.096;14.458;2024-03-02T04:53:15;98628.75;;;12.65;60.61
82245;BME280;71849;50.096;14.458;2024-03-02T04:55:46;98630.72;;;12.75;59.80
82245;BME280;71849;50.096;14.458;2024-03-02T04:58:45;98645.91;;;11.87;62.14
82245;BME280;71849;50.096;14.458;2024-03-02T05:01:14;98642.22;;;11.71;62.66
82245;BME280;71849;50.096;14.458;2024-03-02T05:03:42;98654.75;;;12.31;61.07
82245;BME280;71849;50.096;14.458;2024-03-02T05:06:11;98649.50;;;12.61;60.11
82245;BME280;71849;50.096;14.458;2024-03-02T05:08:39;98635.75;;;12.46;60.41
82245;BME280;71849;50.096;14.458;2024-03-02T05:11:13;98636.38;;;12.58;60.30
82245;BME280;71849;50.096;14.458;2024-03-02T05:13:53;98636.72;;;12.30;60.59
82245;BME280;71849;50.096;14.458;2024-03-02T05:16:22;98640.28;;;12.30;60.45
82245;BME280;71849;50.096;14.458;2024-03-02T05:18:50;98639.25;;;12.41;59.84
82245;BME280;71849;50.096;14.458;2024-03-02T05:21:19;98644.97;;;12.40;60.48
82245;BME280;71849;50.096;14.458;2024-03-02T05:23:47;98641.84;;;12.63;59.29
82245;BME280;71849;50.096;14.458;2024-03-02T05:26:18;98649.91;;;12.43;60.39
82245;BME280;71849;50.096;14.458;2024-03-02T05:28:47;98656.06;;;12.28;60.19
82245;BME280;71849;50.096;14.458;2024-03-02T05:31:16;98664.25;;;12.28;60.54
82245;BME280;71849;50.096;14.458;2024-03-02T05:33:44;98667.25;;;12.69;59.27
82245;BME280;71849;50.096;14.458;2024-03-02T05:36:13;98678.00;;;12.43;59.89
82245;BME280;71849;50.096;14.458;2024-03-02T05:38:41;98678.09;;;12.53;59.47
82245;BME280;71849;50.096;14.458;2024-03-02T05:41:10;98688.69;;;12.50;59.36
82245;BME280;71849;50.096;14.458;2024-03-02T05:43:41;98682.06;;;12.41;59.66
82245;BME280;71849;50.096;14.458;2024-03-02T05:46:09;98692.78;;;12.47;59.70
82245;BME280;71849;50.096;14.458;2024-03-02T05:48:38;98698.00;;;12.54;59.75
82245;BME280;71849;50.096;14.458;2024-03-02T05:51:06;98699.09;;;12.53;59.43
82245;BME280;71849;50.096;14.458;2024-03-02T05:53:35;98694.59;;;12.05;60.75
82245;BME280;71849;50.096;14.458;2024-03-02T05:56:04;98693.59;;;12.16;60.21
82245;BME280;71849;50.096;14.458;2024-03-02T05:58:33;98707.13;;;12.33;60.27
82245;BME280;71849;50.096;14.458;2024-03-02T06:01:17;98708.44;;;12.62;59.12
82245;BME280;71849;50.096;14.458;2024-03-02T06:03:47;98697.25;;;12.27;59.73
82245;BME280;71849;50.096;14.458;2024-03-02T06:06:16;98695.41;;;12.00;60.96
82245;BME280;71849;50.096;14.458;2024-03-02T06:08:44;98702.72;;;12.27;59.92
82245;BME280;71849;50.096;14.458;2024-03-02T06:11:13;98708.94;;;12.22;60.08
82245;BME280;71849;50.096;14.458;2024-03-02T06:13:41;98709.56;;;12.29;59.27
82245;BME280;71849;50.096;14.458;2024-03-02T06:16:10;98706.91;;;12.39;58.85
82245;BME280;71849;50.096;14.458;2024-03-02T06:18:41;98711.66;;;12.54;58.52
82245;BME280;71849;50.096;14.458;2024-03-02T06:21:10;98712.66;;;12.80;57.65
82245;BME280;71849;50.096;14.458;2024-03-02T06:23:38;98712.59;;;12.70;57.83
82245;BME280;71849;50.096;14.458;2024-03-02T06:26:07;98715.97;;;12.82;57.78
82245;BME280;71849;50.096;14.458;2024-03-02T06:28:35;98704.28;;;12.91;57.19
82245;BME280;71849;50.096;14.458;2024-03-02T06:31:07;98708.72;;;12.60;58.23
82245;BME280;71849;50.096;14.458;2024-03-02T06:33:35;98706.97;;;12.49;58.06
82245;BME280;71849;50.096;14.458;2024-03-02T06:36:07;98728.16;;;12.69;57.75
82245;BME280;71849;50.096;14.458;2024-03-02T06:38:37;98717.88;;;12.49;58.26
82245;BME280;71849;50.096;14.458;2024-03-02T06:41:06;98714.22;;;12.71;58.10
82245;BME280;71849;50.096;14.458;2024-03-02T06:43:34;98710.63;;;12.60;57.89
82245;BME280;71849;50.096;14.458;2024-03-02T06:46:03;98722.59;;;12.59;58.35
82245;BME280;71849;50.096;14.458;2024-03-02T06:48:37;98727.53;;;12.62;58.30
82245;BME280;71849;50.096;14.458;2024-03-02T06:51:11;98730.59;;;12.66;58.30
82245;BME280;71849;50.096;14.458;2024-03-02T06:53:40;98730.59;;;12.71;57.93
82245;BME280;71849;50.096;14.458;2024-03-02T06:56:09;98729.72;;;12.60;58.41
82245;BME280;71849;50.096;14.458;2024-03-02T06:58:37;98740.09;;;12.58;58.22
82245;BME280;71849;50.096;14.458;2024-03-02T07:01:06;98733.69;;;12.79;57.89
82245;BME280;71849;50.096;14.458;2024-03-02T07:03:35;98735.41;;;12.90;57.07
82245;BME280;71849;50.096;14.458;2024-03-02T07:06:05;98742.34;;;12.71;57.98
82245;BME280;71849;50.096;14.458;2024-03-02T07:08:36;98751.53;;;12.92;57.81
82245;BME280;71849;50.096;14.458;2024-03-02T07:11:04;98742.03;;;12.63;58.04
82245;BME280;71849;50.096;14.458;2024-03-02T07:13:33;98744.88;;;12.83;57.72
82245;BME280;71849;50.096;14.458;2024-03-02T07:16:01;98754.00;;;12.93;57.88
82245;BME280;71849;50.096;14.458;2024-03-02T07:18:49;98761.13;;;12.99;57.11
82245;BME280;71849;50.096;14.458;2024-03-02T07:21:20;98764.84;;;13.20;56.63
82245;BME280;71849;50.096;14.458;2024-03-02T07:23:51;98763.47;;;12.86;57.62
82245;BME280;71849;50.096;14.458;2024-03-02T07:26:20;98768.19;;;12.95;57.25
82245;BME280;71849;50.096;14.458;2024-03-02T07:28:49;98765.66;;;13.16;56.95
82245;BME280;71849;50.096;14.458;2024-03-02T07:31:17;98766.78;;;13.25;56.68
82245;BME280;71849;50.096;14.458;2024-03-02T07:33:46;98776.97;;;13.34;56.24
82245;BME280;71849;50.096;14.458;2024-03-02T07:36:14;98774.25;;;13.39;56.34
82245;BME280;71849;50.096;14.458;2024-03-02T07:38:44;98776.47;;;13.05;56.56
82245;BME280;71849;50.096;14.458;2024-03-02T07:41:18;98776.28;;;12.80;58.01
82245;BME280;71849;50.096;14.458;2024-03-02T07:43:46;98776.88;;;13.19;56.67
82245;BME280;71849;50.096;14.458;2024-03-02T07:46:15;98776.09;;;13.29;56.25
82245;BME280;71849;50.096;14.458;2024-03-02T07:48:43;98766.28;;;13.38;56.28
82245;BME280;71849;50.096;14.458;2024-03-02T07:51:13;98768.06;;;13.64;55.33
82245;BME280;71849;50.096;14.458;2024-03-02T07:53:42;98762.31;;;13.60;55.18
82245;BME280;71849;50.096;14.458;2024-03-02T07:56:10;98763.44;;;13.75;55.40
82245;BME280;71849;50.096;14.458;2024-03-02T07:58:42;98764.03;;;13.87;54.78
82245;BME280;71849;50.096;14.458;2024-03-02T08:01:11;98766.28;;;14.05;54.46
82245;BME280;71849;50.096;14.458;2024-03-02T08:03:43;98766.84;;;14.07;54.52
82245;BME280;71849;50.096;14.458;2024-03-02T08:06:13;98756.13;;;13.95;54.47
82245;BME280;71849;50.096;14.458;2024-03-02T08:08:42;98756.16;;;14.00;54.19
82245;BME280;71849;50.096;14.458;2024-03-02T08:11:13;98754.03;;;14.22;54.53
82245;BME280;71849;50.096;14.458;2024-03-02T08:13:44;98766.81;;;13.92;54.49
82245;BME280;71849;50.096;14.458;2024-03-02T08:16:13;98768.81;;;14.32;53.23
82245;BME280;71849;50.096;14.458;2024-03-02T08:18:45;98766.41;;;14.55;52.62
82245;BME280;71849;50.096;14.458;2024-03-02T08:21:13;98777.56;;;14.29;53.34
82245;BME280;71849;50.096;14.458;2024-03-02T08:23:42;98776.88;;;13.86;54.24
82245;BME280;71849;50.096;14.458;2024-03-02T08:26:11;98772.66;;;14.36;53.59
82245;BME280;71849;50.096;14.458;2024-03-02T08:28:40;98779.53;;;14.53;52.95
82245;BME280;71849;50.096;14.458;2024-03-02T08:31:11;98766.94;;;14.88;52.15
82245;BME280;71849;50.096;14.458;2024-03-02T08:33:39;98768.56;;;14.53;53.17
82245;BME280;71849;50.096;14.458;2024-03-02T08:36:09;98763.81;;;14.08;53.71
82245;BME280;71849;50.096;14.458;2024-03-02T08:38:38;98771.75;;;13.95;54.68
82245;BME280;71849;50.096;14.458;2024-03-02T08:41:06;98776.16;;;14.21;53.69
82245;BME280;71849;50.096;14.458;2024-03-02T08:43:35;98785.22;;;14.27;53.55
82245;BME280;71849;50.096;14.458;2024-03-02T08:46:03;98780.00;;;14.15;53.20
82245;BME280;71849;50.096;14.458;2024-03-02T08:48:35;98781.97;;;14.40;53.22
82245;BME280;71849;50.096;14.458;2024-03-02T08:51:04;98777.06;;;14.47;53.05
82245;BME280;71849;50.096;14.458;2024-03-02T08:53:33;98782.28;;;14.43;52.46
82245;BME280;71849;50.096;14.458;2024-03-02T08:56:02;98788.75;;;14.12;53.22
82245;BME280;71849;50.096;14.458;2024-03-02T08:58:31;98790.97;;;14.30;52.59
82245;BME280;71849;50.096;14.458;2024-03-02T09:01:00;98789.94;;;14.46;52.51
82245;BME280;71849;50.096;14.458;2024-03-02T09:03:28;98783.63;;;14.36;53.21
82245;BME280;71849;50.096;14.458;2024-03-02T09:06:01;98792.97;;;14.50;53.01
82245;BME280;71849;50.096;14.458;2024-03-02T09:08:29;98788.31;;;14.55;52.42
82245;BME280;71849;50.096;14.458;2024-03-02T09:10:58;98787.75;;;14.58;51.57
82245;BME280;71849;50.096;14.458;2024-03-02T09:13:27;98787.19;;;14.66;50.76
82245;BME280;71849;50.096;14.458;2024-03-02T09:15:55;98785.81;;;14.39;51.17
82245;BME280;71849;50.096;14.458;2024-03-02T09:18:24;98785.56;;;14.55;51.14
82245;BME280;71849;50.096;14.458;2024-03-02T09:20:52;98789.38;;;14.74;51.10
82245;BME280;71849;50.096;14.458;2024-03-02T09:23:23;98787.47;;;14.70;50.82
82245;BME280;71849;50.096;14.458;2024-03-02T09:25:52;98789.91;;;15.02;50.63
82245;BME280;71849;50.096;14.458;2024-03-02T09:28:20;98786.63;;;14.90;50.49
82245;BME280;71849;50.096;14.458;2024-03-02T09:30:49;98786.09;;;14.98;50.10
82245;BME280;71849;50.096;14.458;2024-03-02T09:33:17;98781.72;;;15.07;50.15
82245;BME280;71849;50.096;14.458;2024-03-02T09:35:46;98784.47;;;14.82;50.49
82245;BME280;71849;50.096;14.458;2024-03-02T09:38:14;98780.34;;;15.04;50.19
82245;BME280;71849;50.096;14.458;2024-03-02T09:40:46;98783.88;;;15.15;49.83
82245;BME280;71849;50.096;14.458;2024-03-02T09:43:14;98784.44;;;15.02;49.91
82245;BME280;71849;50.096;14.458;2024-03-02T09:45:44;98786.09;;;14.77;50.85
82245;BME280;71849;50.096;14.458;2024-03-02T09:48:13;98778.41;;;15.00;50.82
82245;BME280;71849;50.096;14.458;2024-03-02T09:50:44;98779.25;;;15.10;49.79
82245;BME280;71849;50.096;14.458;2024-03-02T09:53:14;98777.88;;;15.13;50.11
82245;BME280;71849;50.096;14.458;2024-03-02T09:55:48;98773.78;;;14.90;50.35
82245;BME280;71849;50.096;14.458;2024-03-02T09:58:16;98770.50;;;14.83;50.93
82245;BME280;71849;50.096;14.458;2024-03-02T10:00:45;98773.50;;;15.07;50.38
82245;BME280;71849;50.096;14.458;2024-03-02T10:03:14;98773.75;;;15.10;50.31
82245;BME280;71849;50.096;14.458;2024-03-02T10:05:43;98778.69;;;15.08;49.58
82245;BME280;71849;50.096;14.458;2024-03-02T10:08:11;98768.25;;;15.25;49.92
82245;BME280;71849;50.096;14.458;2024-03-02T10:10:41;98772.84;;;15.45;49.53
82245;BME280;71849;50.096;14.458;2024-03-02T10:13:13;98774.22;;;15.43;48.78
82245;BME280;71849;50.096;14.458;2024-03-02T10:15:43;98775.91;;;15.23;49.29
82245;BME280;71849;50.096;14.458;2024-03-02T10:18:12;98787.16;;;15.12;49.78
82245;BME280;71849;50.096;14.458;2024-03-02T10:20:41;98778.91;;;15.27;49.73
82245;BME280;71849;50.096;14.458;2024-03-02T10:23:11;98777.63;;;14.69;50.70
82245;BME280;71849;50.096;14.458;2024-03-02T10:25:40;98779.53;;;14.84;50.53
82245;BME280;71849;50.096;14.458;2024-03-02T10:28:12;98788.81;;;15.13;49.77
82245;BME280;71849;50.096;14.458;2024-03-02T10:30:40;98790.47;;;15.19;49.56
82245;BME280;71849;50.096;14.458;2024-03-02T10:33:09;98779.75;;;15.27;49.55
82245;BME280;71849;50.096;14.458;2024-03-02T10:35:38;98772.13;;;14.69;52.27
82245;BME280;71849;50.096;14.458;2024-03-02T10:38:11;98772.66;;;15.06;50.86
82245;BME280;71849;50.096;14.458;2024-03-02T10:40:39;98757.50;;;15.49;49.59
82245;BME280;71849;50.096;14.458;2024-03-02T10:43:11;98763.00;;;15.49;49.43
82245;BME280;71849;50.096;14.458;2024-03-02T10:45:40;98760.19;;;15.64;49.03
82245;BME280;71849;50.096;14.458;2024-03-02T10:48:09;98761.25;;;15.73;48.56
82245;BME280;71849;50.096;14.458;2024-03-02T10:50:38;98748.69;;;15.62;48.65
82245;BME280;71849;50.096;14.458;2024-03-02T10:53:06;98744.94;;;15.23;49.80
82245;BME280;71849;50.096;14.458;2024-03-02T10:55:34;98743.31;;;15.12;50.19
82245;BME280;71849;50.096;14.458;2024-03-02T10:58:04;98752.41;;;14.82;51.10
82245;BME280;71849;50.096;14.458;2024-03-02T11:00:38;98753.47;;;14.96;50.35
82245;BME280;71849;50.096;14.458;2024-03-02T11:03:07;98746.25;;;15.51;49.38
82245;BME280;71849;50.096;14.458;2024-03-02T11:05:40;98735.69;;;15.78;48.67
82245;BME280;71849;50.096;14.458;2024-03-02T11:08:13;98741.88;;;15.40;48.70
82245;BME280;71849;50.096;14.458;2024-03-02T11:10:49;98738.91;;;15.21;50.06
82245;BME280;71849;50.096;14.458;2024-03-02T11:13:22;98742.00;;;15.83;48.10
82245;BME280;71849;50.096;14.458;2024-03-02T11:15:59;98732.88;;;15.98;47.60
82245;BME280;71849;50.096;14.458;2024-03-02T11:18:32;98739.69;;;15.37;48.58
82245;BME280;71849;50.096;14.458;2024-03-02T11:21:02;98730.38;;;15.97;47.77
82245;BME280;71849;50.096;14.458;2024-03-02T11:23:32;98737.47;;;15.59;48.10
82245;BME280;71849;50.096;14.458;2024-03-02T11:26:19;98726.78;;;15.47;48.70
82245;BME280;71849;50.096;14.458;2024-03-02T11:28:48;98721.22;;;15.67;47.95
82245;BME280;71849;50.096;14.458;2024-03-02T11:31:20;98714.84;;;15.82;47.61
82245;BME280;71849;50.096;14.458;2024-03-02T11:33:48;98714.84;;;15.82;47.92
82245;BME280;71849;50.096;14.458;2024-03-02T11:36:17;98712.97;;;15.72;48.23
82245;BME280;71849;50.096;14.458;2024-03-02T11:38:46;98718.41;;;15.82;47.79
82245;BME280;71849;50.096;14.458;2024-03-02T11:41:23;98722.28;;;14.92;49.65
82245;BME280;71849;50.096;14.458;2024-03-02T11:43:59;98701.16;;;14.88;49.54
82245;BME280;71849;50.096;14.458;2024-03-02T11:46:30;98705.28;;;14.90;49.70
82245;BME280;71849;50.096;14.458;2024-03-02T11:49:00;98707.75;;;14.31;51.51
82245;BME280;71849;50.096;14.458;2024-03-02T11:51:29;98702.75;;;15.14;50.15
82245;BME280;71849;50.096;14.458;2024-03-02T11:54:05;98704.78;;;14.53;50.77
82245;BME280;71849;50.096;14.458;2024-03-02T11:56:35;98703.09;;;14.87;49.30
82245;BME280;71849;50.096;14.458;2024-03-02T11:59:03;98698.69;;;15.01;49.59
82245;BME280;71849;50.096;14.458;2024-03-02T12:01:37;98713.81;;;14.73;50.06
82245;BME280;71849;50.096;14.458;2024-03-02T12:04:07;98704.03;;;15.42;48.64
82245;BME280;71849;50.096;14.458;2024-03-02T12:06:36;98700.38;;;15.71;48.35
82245;BME280;71849;50.096;14.458;2024-03-02T12:09:05;98702.03;;;16.11;46.89
82245;BME280;71849;50.096;14.458;2024-03-02T12:11:36;98703.50;;;15.99;46.66
82245;BME280;71849;50.096;14.458;2024-03-02T12:14:11;98697.41;;;16.07;46.06
82245;BME280;71849;50.096;14.458;2024-03-02T12:16:46;98697.81;;;15.85;46.25
82245;BME280;71849;50.096;14.458;2024-03-02T12:19:14;98695.44;;;16.12;46.46
82245;BME280;71849;50.096;14.458;2024-03-02T12:21:46;98693.66;;;16.26;45.79
82245;BME280;71849;50.096;14.458;2024-03-02T12:24:14;98697.59;;;16.15;46.30
82245;BME280;71849;50.096;14.458;2024-03-02T12:26:43;98697.81;;;16.24;46.36
82245;BME280;71849;50.096;14.458;2024-03-02T12:29:12;98700.31;;;16.59;45.85
82245;BME280;71849;50.096;14.458;2024-03-02T12:31:42;98700.53;;;16.29;45.95
82245;BME280;71849;50.096;14.458;2024-03-02T12:34:13;98697.69;;;16.39;45.79
82245;BME280;71849;50.096;14.458;2024-03-02T12:36:44;98706.69;;;16.50;45.49
82245;BME280;71849;50.096;14.458;2024-03-02T12:39:15;98696.22;;;16.52;45.28
82245;BME280;71849;50.096;14.458;2024-03-02T12:41:44;98701.94;;;16.60;45.16
82245;BME280;71849;50.096;14.458;2024-03-02T12:44:13;98698.78;;;16.77;44.70
82245;BME280;71849;50.096;14.458;2024-03-02T12:46:41;98694.22;;;16.91;44.93
82245;BME280;71849;50.096;14.458;2024-03-02T12:49:14;98681.81;;;16.99;44.77
82245;BME280;71849;50.096;14.458;2024-03-02T12:51:43;98689.25;;;16.30;45.71
82245;BME280;71849;50.096;14.458;2024-03-02T12:54:17;98688.72;;;16.28;45.90
82245;BME280;71849;50.096;14.458;2024-03-02T12:56:45;98693.50;;;16.13;46.37
82245;BME280;71849;50.096;14.458;2024-03-02T12:59:18;98682.22;;;15.75;47.65
82245;BME280;71849;50.096;14.458;2024-03-02T13:01:51;98683.16;;;15.51;48.36
82245;BME280;71849;50.096;14.458;2024-03-02T13:04:27;98685.19;;;15.25;49.61